createdAt,value
2017-02-04T00:01:03.550Z,7.12
2017-02-04T00:02:12.976Z,7.05
2017-02-04T00:03:23.559Z,7.07
2017-02-04T00:04:32.614Z,7.1
2017-02-04T00:05:42.477Z,7.12
2017-02-04T00:06:51.521Z,7.06
2017-02-04T00:08:00.950Z,7.1
2017-02-04T00:09:11.144Z,7.1
2017-02-04T00:10:19.809Z,7.16
2017-02-04T00:11:29.673Z,7.23
2017-02-04T00:12:39.867Z,7.2
2017-02-04T00:13:49.296Z,7.28
2017-02-04T00:14:59.110Z,7.3
2017-02-04T00:16:08.921Z,7.23
2017-02-04T00:17:17.967Z,7.25
2017-02-04T00:18:28.209Z,7.32
2017-02-04T00:19:38.407Z,7.39
2017-02-04T00:20:48.218Z,7.34
2017-02-04T00:21:57.649Z,7.39
2017-02-04T00:23:07.074Z,7.46
2017-02-04T00:24:16.887Z,7.55
2017-02-04T00:25:26.359Z,7.46
2017-02-04T00:26:35.411Z,7.61
2017-02-04T00:27:45.222Z,7.64
2017-02-04T00:28:54.698Z,7.55
2017-02-04T00:30:04.514Z,7.69
2017-02-04T00:31:14.324Z,7.68
2017-02-04T00:32:24.518Z,7.77
2017-02-04T00:33:34.342Z,7.79
2017-02-04T00:34:43.774Z,7.8
2017-02-04T00:35:53.581Z,7.71
2017-02-04T00:37:03.396Z,7.79
2017-02-04T00:38:12.450Z,7.75
2017-02-04T00:39:21.881Z,7.67
2017-02-04T00:40:32.125Z,7.64
2017-02-04T00:41:42.324Z,7.64
2017-02-04T00:42:51.372Z,7.61
2017-02-04T00:44:01.190Z,7.63
2017-02-04T00:45:10.236Z,7.58
2017-02-04T00:46:20.052Z,7.57
2017-02-04T00:47:29.484Z,7.49
2017-02-04T00:48:38.916Z,7.46
2017-02-04T00:49:48.732Z,7.46
2017-02-04T00:50:58.171Z,7.52
2017-02-04T00:52:07.599Z,7.48
2017-02-04T00:53:16.645Z,7.49
2017-02-04T00:54:26.459Z,7.49
2017-02-04T00:55:35.889Z,7.61
2017-02-04T00:56:45.319Z,7.55
2017-02-04T00:57:55.515Z,7.69
2017-02-04T00:59:05.329Z,7.57
2017-02-04T01:00:15.147Z,7.69
2017-02-04T01:01:24.190Z,7.72
2017-02-04T01:02:34.044Z,7.71
2017-02-04T01:03:43.086Z,7.64
2017-02-04T01:04:52.903Z,7.61
2017-02-04T01:06:03.108Z,7.45
2017-02-04T01:07:12.536Z,7.57
2017-02-04T01:08:21.581Z,7.42
2017-02-04T01:09:31.013Z,7.45
2017-02-04T01:10:40.826Z,7.37
2017-02-04T01:11:51.023Z,7.34
2017-02-04T01:13:01.226Z,7.23
2017-02-04T01:14:11.421Z,7.24
2017-02-04T01:15:21.616Z,7.28
2017-02-04T01:16:31.467Z,7.23
2017-02-04T01:17:40.519Z,7.21
2017-02-04T01:18:51.100Z,7.2
2017-02-04T01:20:01.298Z,7.16
2017-02-04T01:21:11.131Z,7.15
2017-02-04T01:22:20.560Z,7.1
2017-02-04T01:23:29.989Z,7.12
2017-02-04T01:24:39.418Z,7.07
2017-02-04T01:25:49.612Z,7.09
2017-02-04T01:26:59.094Z,7.12
2017-02-04T01:28:08.150Z,7.05
2017-02-04T01:29:17.964Z,7.09
2017-02-04T01:30:27.394Z,7.07
2017-02-04T01:31:37.205Z,7.05
2017-02-04T01:32:47.400Z,7.06
2017-02-04T01:33:56.824Z,7.06
2017-02-04T01:35:06.646Z,7.07
2017-02-04T01:36:16.075Z,7.07
2017-02-04T01:37:25.890Z,7.06
2017-02-04T01:38:36.088Z,7.02
2017-02-04T01:39:45.133Z,7.05
2017-02-04T01:40:54.949Z,7.07
2017-02-04T01:42:04.788Z,7.1
2017-02-04T01:43:13.834Z,7.1
2017-02-04T01:44:23.311Z,7.06
2017-02-04T01:45:33.126Z,7.06
2017-02-04T01:46:42.938Z,7.06
2017-02-04T01:47:52.368Z,7.05
2017-02-04T01:49:01.420Z,7.12
2017-02-04T01:50:10.851Z,7.1
2017-02-04T01:51:20.666Z,7.1
2017-02-04T01:52:30.130Z,7.06
2017-02-04T01:53:39.944Z,7.05
2017-02-04T01:54:48.606Z,7.06
2017-02-04T01:55:58.431Z,7.06
2017-02-04T01:57:07.861Z,7.06
2017-02-04T01:58:17.292Z,7.06
2017-02-04T01:59:27.106Z,6.98
2017-02-04T02:00:36.150Z,7.09
2017-02-04T02:01:45.242Z,6.95
2017-02-04T02:02:54.673Z,6.92
2017-02-04T02:04:04.491Z,7.02
2017-02-04T02:05:13.537Z,7.06
2017-02-04T02:06:22.966Z,7.07
2017-02-04T02:07:32.396Z,6.91
2017-02-04T02:08:42.591Z,6.92
2017-02-04T02:09:52.400Z,6.94
2017-02-04T02:11:02.212Z,6.95
2017-02-04T02:12:12.024Z,6.92
2017-02-04T02:13:21.121Z,6.92
2017-02-04T02:14:31.320Z,6.92
2017-02-04T02:15:41.517Z,6.95
2017-02-04T02:16:50.949Z,6.91
2017-02-04T02:18:00.767Z,6.89
2017-02-04T02:19:10.580Z,6.85
2017-02-04T02:20:20.394Z,6.79
2017-02-04T02:21:30.207Z,6.84
2017-02-04T02:22:39.627Z,6.76
2017-02-04T02:23:49.057Z,6.77
2017-02-04T02:24:58.871Z,6.79
2017-02-04T02:26:08.685Z,6.79
2017-02-04T02:27:18.498Z,6.76
2017-02-04T02:28:29.110Z,6.71
2017-02-04T02:29:38.539Z,6.69
2017-02-04T02:30:48.358Z,6.77
2017-02-04T02:31:58.557Z,6.71
2017-02-04T02:33:07.987Z,6.76
2017-02-04T02:34:17.410Z,6.77
2017-02-04T02:35:26.838Z,6.74
2017-02-04T02:36:37.085Z,6.81
2017-02-04T02:37:45.746Z,6.84
2017-02-04T02:38:54.796Z,6.84
2017-02-04T02:40:04.231Z,6.81
2017-02-04T02:41:13.654Z,6.85
2017-02-04T02:42:23.083Z,6.88
2017-02-04T02:43:33.282Z,6.95
2017-02-04T02:44:41.945Z,6.95
2017-02-04T02:45:52.522Z,6.76
2017-02-04T02:47:02.333Z,6.77
2017-02-04T02:48:11.383Z,6.84
2017-02-04T02:49:20.429Z,6.74
2017-02-04T02:50:30.241Z,6.71
2017-02-04T02:51:40.051Z,6.79
2017-02-04T02:52:49.484Z,6.76
2017-02-04T02:53:59.308Z,6.76
2017-02-04T02:55:09.498Z,6.76
2017-02-04T02:56:19.690Z,6.71
2017-02-04T02:57:28.741Z,6.8
2017-02-04T02:58:37.784Z,6.79
2017-02-04T02:59:46.831Z,6.74
2017-02-04T03:00:56.261Z,6.81
2017-02-04T03:02:06.467Z,6.79
2017-02-04T03:03:15.893Z,6.77
2017-02-04T03:04:25.709Z,6.76
2017-02-04T03:05:34.756Z,6.73
2017-02-04T03:06:44.565Z,6.7
2017-02-04T03:07:53.994Z,6.79
2017-02-04T03:09:03.806Z,6.8
2017-02-04T03:10:14.382Z,6.81
2017-02-04T03:11:24.244Z,6.76
2017-02-04T03:12:34.054Z,6.81
2017-02-04T03:13:42.715Z,6.85
2017-02-04T03:14:51.761Z,6.77
2017-02-04T03:16:00.805Z,6.66
2017-02-04T03:17:10.999Z,6.73
2017-02-04T03:18:19.658Z,6.62
2017-02-04T03:19:29.854Z,6.69
2017-02-04T03:20:38.906Z,6.7
2017-02-04T03:21:48.330Z,6.59
2017-02-04T03:22:58.141Z,6.56
2017-02-04T03:24:07.572Z,6.52
2017-02-04T03:25:17.764Z,6.62
2017-02-04T03:26:26.812Z,6.54
2017-02-04T03:27:36.624Z,6.54
2017-02-04T03:28:47.204Z,6.54
2017-02-04T03:29:57.785Z,6.52
2017-02-04T03:31:07.600Z,6.52
2017-02-04T03:32:17.409Z,6.56
2017-02-04T03:33:26.453Z,6.43
2017-02-04T03:34:36.310Z,6.51
2017-02-04T03:35:46.543Z,6.44
2017-02-04T03:36:56.356Z,6.49
2017-02-04T03:38:05.781Z,6.37
2017-02-04T03:39:14.827Z,6.38
2017-02-04T03:40:24.640Z,6.36
2017-02-04T03:41:34.450Z,6.21
2017-02-04T03:42:43.115Z,6.15
2017-02-04T03:43:53.314Z,6.14
2017-02-04T03:45:03.126Z,5.86
2017-02-04T03:46:11.788Z,5.85
2017-02-04T03:47:20.873Z,5.68
2017-02-04T03:48:30.303Z,5.82
2017-02-04T03:49:39.351Z,5.9
2017-02-04T03:50:48.783Z,6
2017-02-04T03:51:59.029Z,5.99
2017-02-04T03:53:08.457Z,6.03
2017-02-04T03:54:17.121Z,5.9
2017-02-04T03:55:26.172Z,6.01
2017-02-04T03:56:35.603Z,5.9
2017-02-04T03:57:45.464Z,5.61
2017-02-04T03:58:54.892Z,5.54
2017-02-04T04:00:04.705Z,5.56
2017-02-04T04:01:14.136Z,5.42
2017-02-04T04:02:23.565Z,5.35
2017-02-04T04:03:32.991Z,5.36
2017-02-04T04:04:42.795Z,5.3
2017-02-04T04:05:51.458Z,5.2
2017-02-04T04:07:01.658Z,5.2
2017-02-04T04:08:11.090Z,5.17
2017-02-04T04:09:20.905Z,5.15
2017-02-04T04:10:29.949Z,5.21
2017-02-04T04:11:39.376Z,5.1
2017-02-04T04:12:48.420Z,5.1
2017-02-04T04:13:57.848Z,5.09
2017-02-04T04:15:07.660Z,5.04
2017-02-04T04:16:17.470Z,5
2017-02-04T04:17:27.280Z,5.03
2017-02-04T04:18:37.471Z,5.13
2017-02-04T04:19:47.281Z,5.07
2017-02-04T04:20:57.093Z,4.92
2017-02-04T04:22:07.285Z,4.91
2017-02-04T04:23:17.096Z,4.94
2017-02-04T04:24:26.905Z,4.88
2017-02-04T04:25:36.377Z,5.02
2017-02-04T04:26:46.572Z,5.09
2017-02-04T04:27:56.764Z,5.13
2017-02-04T04:29:06.959Z,5.35
2017-02-04T04:30:15.613Z,5.42
2017-02-04T04:31:25.418Z,5.31
2017-02-04T04:32:34.847Z,5.22
2017-02-04T04:33:45.045Z,5.35
2017-02-04T04:34:54.090Z,5.39
2017-02-04T04:36:03.132Z,5.43
2017-02-04T04:37:12.173Z,5.42
2017-02-04T04:38:22.416Z,5.35
2017-02-04T04:39:32.228Z,5.33
2017-02-04T04:40:41.273Z,5.35
2017-02-04T04:41:51.464Z,5.09
2017-02-04T04:43:00.510Z,5.07
2017-02-04T04:44:09.555Z,5.2
2017-02-04T04:45:18.599Z,5.12
2017-02-04T04:46:28.412Z,4.97
2017-02-04T04:47:38.609Z,4.94
2017-02-04T04:48:47.652Z,4.84
2017-02-04T04:49:57.077Z,4.85
2017-02-04T04:51:07.282Z,4.52
2017-02-04T04:52:17.477Z,4.44
2017-02-04T04:53:26.898Z,4.34
2017-02-04T04:54:36.704Z,4.23
2017-02-04T04:55:46.519Z,4.23
2017-02-04T04:56:56.328Z,4.2
2017-02-04T04:58:05.754Z,4.33
2017-02-04T04:59:15.567Z,4.33
2017-02-04T05:00:24.995Z,4.18
2017-02-04T05:01:34.808Z,4.23
2017-02-04T05:02:44.235Z,4.29
2017-02-04T05:03:54.460Z,4.23
2017-02-04T05:05:03.893Z,4.12
2017-02-04T05:06:14.082Z,4.2
2017-02-04T05:07:24.280Z,4.2
2017-02-04T05:08:33.722Z,4.23
2017-02-04T05:09:43.540Z,4.18
2017-02-04T05:10:52.970Z,4.12
2017-02-04T05:12:02.781Z,4.23
2017-02-04T05:13:11.878Z,4.18
2017-02-04T05:14:22.108Z,4.2
2017-02-04T05:15:31.151Z,4.08
2017-02-04T05:16:40.576Z,4.06
2017-02-04T05:17:50.003Z,4.14
2017-02-04T05:18:59.811Z,4.04
2017-02-04T05:20:09.621Z,4.08
2017-02-04T05:21:19.430Z,4.05
2017-02-04T05:22:28.095Z,3.97
2017-02-04T05:23:37.901Z,3.96
2017-02-04T05:24:47.759Z,3.93
2017-02-04T05:25:56.805Z,3.9
2017-02-04T05:27:07.002Z,3.93
2017-02-04T05:28:16.813Z,3.94
2017-02-04T05:29:26.626Z,3.91
2017-02-04T05:30:36.053Z,3.83
2017-02-04T05:31:45.093Z,3.79
2017-02-04T05:32:54.903Z,3.83
2017-02-04T05:34:04.717Z,3.8
2017-02-04T05:35:14.142Z,3.73
2017-02-04T05:36:23.622Z,3.62
2017-02-04T05:37:33.046Z,3.58
2017-02-04T05:38:42.863Z,3.42
2017-02-04T05:39:52.293Z,3.35
2017-02-04T05:41:02.488Z,3.39
2017-02-04T05:42:11.919Z,3.32
2017-02-04T05:43:21.347Z,3.2
2017-02-04T05:44:31.154Z,2.84
2017-02-04T05:45:40.589Z,2.69
2017-02-04T05:46:50.405Z,2.53
2017-02-04T05:47:59.878Z,2.27
2017-02-04T05:49:09.309Z,2.21
2017-02-04T05:50:18.351Z,1.9
2017-02-04T05:51:27.785Z,1.83
2017-02-04T05:52:37.221Z,1.73
2017-02-04T05:53:47.032Z,1.69
2017-02-04T05:54:56.076Z,1.68
2017-02-04T05:56:05.897Z,1.63
2017-02-04T05:57:14.943Z,1.58
2017-02-04T05:58:25.519Z,1.54
2017-02-04T05:59:35.328Z,1.59
2017-02-04T06:00:45.523Z,1.52
2017-02-04T06:01:54.955Z,1.54
2017-02-04T06:03:05.157Z,1.48
2017-02-04T06:04:14.967Z,1.42
2017-02-04T06:05:24.061Z,1.36
2017-02-04T06:06:34.256Z,1.23
2017-02-04T06:07:43.299Z,1.15
2017-02-04T06:08:52.723Z,0.93
2017-02-04T06:10:02.921Z,0.98
2017-02-04T06:11:11.581Z,1.2
2017-02-04T06:12:21.389Z,1.26
2017-02-04T06:13:31.201Z,1.32
2017-02-04T06:14:41.397Z,1.45
2017-02-04T06:15:50.823Z,1.42
2017-02-04T06:17:01.063Z,1.55
2017-02-04T06:18:10.144Z,1.62
2017-02-04T06:19:20.342Z,1.59
2017-02-04T06:20:29.767Z,1.68
2017-02-04T06:21:39.574Z,1.6
2017-02-04T06:22:48.652Z,1.65
2017-02-04T06:23:59.231Z,1.6
2017-02-04T06:25:09.422Z,1.58
2017-02-04T06:26:18.843Z,1.6
2017-02-04T06:27:28.274Z,1.58
2017-02-04T06:28:37.369Z,1.59
2017-02-04T06:29:47.182Z,1.55
2017-02-04T06:30:57.761Z,1.59
2017-02-04T06:32:07.568Z,1.63
2017-02-04T06:33:17.378Z,1.55
2017-02-04T06:34:27.240Z,1.59
2017-02-04T06:35:35.898Z,1.54
2017-02-04T06:36:45.704Z,1.48
2017-02-04T06:37:55.517Z,1.5
2017-02-04T06:39:04.555Z,1.45
2017-02-04T06:40:14.373Z,1.3
2017-02-04T06:41:24.564Z,1.22
2017-02-04T06:42:34.377Z,1.32
2017-02-04T06:43:43.801Z,1.29
2017-02-04T06:44:52.849Z,1.12
2017-02-04T06:46:01.943Z,1.2
2017-02-04T06:47:12.141Z,1.16
2017-02-04T06:48:21.184Z,1.23
2017-02-04T06:49:30.230Z,1.18
2017-02-04T06:50:39.278Z,1.33
2017-02-04T06:51:49.082Z,1.18
2017-02-04T06:52:59.278Z,1.16
2017-02-04T06:54:09.083Z,1.14
2017-02-04T06:55:18.518Z,1.06
2017-02-04T06:56:27.181Z,0.97
2017-02-04T06:57:37.041Z,0.97
2017-02-04T06:58:46.894Z,0.84
2017-02-04T06:59:57.092Z,0.78
2017-02-04T07:01:06.525Z,0.75
2017-02-04T07:02:16.722Z,0.75
2017-02-04T07:03:26.152Z,0.78
2017-02-04T07:04:35.961Z,0.76
2017-02-04T07:05:45.768Z,0.76
2017-02-04T07:06:54.814Z,0.76
2017-02-04T07:08:04.242Z,0.72
2017-02-04T07:09:13.721Z,0.76
2017-02-04T07:10:23.182Z,0.55
2017-02-04T07:11:32.990Z,0.6
2017-02-04T07:12:42.801Z,0.76
2017-02-04T07:13:52.228Z,0.73
2017-02-04T07:15:01.657Z,0.76
2017-02-04T07:16:11.086Z,0.78
2017-02-04T07:17:20.898Z,0.8
2017-02-04T07:18:31.474Z,0.8
2017-02-04T07:19:42.051Z,0.9
2017-02-04T07:20:51.861Z,0.93
2017-02-04T07:22:01.672Z,0.72
2017-02-04T07:23:12.257Z,0.94
2017-02-04T07:24:22.447Z,0.94
2017-02-04T07:25:31.873Z,1.14
2017-02-04T07:26:41.735Z,1.12
2017-02-04T07:27:51.548Z,1.15
2017-02-04T07:29:00.591Z,1.24
2017-02-04T07:30:10.406Z,1.37
2017-02-04T07:31:19.840Z,1.33
2017-02-04T07:32:29.269Z,1.37
2017-02-04T07:33:38.320Z,1.41
2017-02-04T07:34:48.134Z,1.41
2017-02-04T07:35:57.183Z,1.44
2017-02-04T07:37:06.993Z,1.45
2017-02-04T07:38:16.866Z,1.6
2017-02-04T07:39:26.681Z,1.72
2017-02-04T07:40:35.727Z,1.65
2017-02-04T07:41:45.957Z,1.76
2017-02-04T07:42:54.999Z,1.84
2017-02-04T07:44:04.098Z,1.88
2017-02-04T07:45:13.144Z,1.99
2017-02-04T07:46:22.953Z,1.9
2017-02-04T07:47:32.759Z,2.03
2017-02-04T07:48:41.802Z,2.17
2017-02-04T07:49:51.231Z,2.14
2017-02-04T07:51:01.427Z,2.3
2017-02-04T07:52:10.479Z,2.23
2017-02-04T07:53:20.669Z,2.25
2017-02-04T07:54:30.100Z,2.36
2017-02-04T07:55:39.965Z,2.43
2017-02-04T07:56:50.548Z,2.49
2017-02-04T07:58:00.363Z,2.53
2017-02-04T07:59:09.406Z,2.49
2017-02-04T08:00:19.217Z,2.54
2017-02-04T08:01:29.027Z,2.54
2017-02-04T08:02:38.843Z,2.48
2017-02-04T08:03:47.889Z,2.49
2017-02-04T08:04:57.319Z,2.53
2017-02-04T08:06:07.137Z,2.6
2017-02-04T08:07:16.239Z,2.61
2017-02-04T08:08:25.671Z,2.67
2017-02-04T08:09:34.716Z,2.71
2017-02-04T08:10:43.765Z,2.72
2017-02-04T08:11:52.813Z,2.82
2017-02-04T08:13:02.291Z,2.79
2017-02-04T08:14:10.956Z,2.89
2017-02-04T08:15:21.147Z,2.85
2017-02-04T08:16:30.967Z,2.93
2017-02-04T08:17:40.781Z,2.93
2017-02-04T08:18:50.976Z,2.97
2017-02-04T08:20:00.793Z,3.06
2017-02-04T08:21:10.220Z,3.06
2017-02-04T08:22:19.268Z,3.17
2017-02-04T08:23:28.693Z,3.15
2017-02-04T08:24:38.551Z,3.29
2017-02-04T08:25:49.172Z,3.15
2017-02-04T08:26:58.982Z,3.17
2017-02-04T08:28:08.794Z,3.29
2017-02-04T08:29:18.601Z,3.32
2017-02-04T08:30:27.697Z,3.31
2017-02-04T08:31:37.128Z,3.32
2017-02-04T08:32:46.179Z,3.4
2017-02-04T08:33:55.223Z,3.4
2017-02-04T08:35:05.419Z,3.33
2017-02-04T08:36:14.918Z,3.42
2017-02-04T08:37:24.364Z,3.42
2017-02-04T08:38:34.562Z,3.52
2017-02-04T08:39:43.991Z,3.61
2017-02-04T08:40:53.043Z,3.66
2017-02-04T08:42:02.859Z,3.78
2017-02-04T08:43:12.295Z,3.76
2017-02-04T08:44:22.109Z,3.8
2017-02-04T08:45:31.155Z,3.86
2017-02-04T08:46:40.585Z,3.96
2017-02-04T08:47:50.068Z,3.94
2017-02-04T08:48:59.881Z,3.97
2017-02-04T08:50:08.935Z,3.86
2017-02-04T08:51:19.130Z,3.97
2017-02-04T08:52:28.949Z,4.12
2017-02-04T08:53:38.967Z,4
2017-02-04T08:54:48.777Z,4.15
2017-02-04T08:55:57.817Z,4.11
2017-02-04T08:57:07.635Z,4.15
2017-02-04T08:58:17.513Z,4.22
2017-02-04T08:59:27.332Z,4.24
2017-02-04T09:00:37.141Z,4.37
2017-02-04T09:01:47.344Z,4.36
2017-02-04T09:02:56.386Z,4.4
2017-02-04T09:04:06.585Z,4.48
2017-02-04T09:05:16.830Z,4.5
2017-02-04T09:06:25.876Z,4.55
2017-02-04T09:07:35.309Z,4.59
2017-02-04T09:08:45.126Z,4.6
2017-02-04T09:09:54.558Z,4.72
2017-02-04T09:11:03.992Z,4.84
2017-02-04T09:12:13.808Z,4.92
2017-02-04T09:13:23.239Z,4.91
2017-02-04T09:14:33.058Z,5.04
2017-02-04T09:15:42.491Z,5.09
2017-02-04T09:16:52.687Z,5.09
2017-02-04T09:18:02.501Z,5.09
2017-02-04T09:19:11.551Z,5.1
2017-02-04T09:20:21.368Z,5.15
2017-02-04T09:21:30.803Z,5.18
2017-02-04T09:22:40.230Z,5.31
2017-02-04T09:23:49.656Z,5.31
2017-02-04T09:24:58.703Z,5.33
2017-02-04T09:26:07.752Z,5.35
2017-02-04T09:27:17.582Z,5.38
2017-02-04T09:28:27.064Z,5.42
2017-02-04T09:29:36.500Z,5.56
2017-02-04T09:30:45.564Z,5.53
2017-02-04T09:31:56.147Z,5.58
2017-02-04T09:33:05.239Z,5.74
2017-02-04T09:34:15.054Z,5.78
2017-02-04T09:35:24.867Z,5.89
2017-02-04T09:36:35.068Z,5.85
2017-02-04T09:37:45.266Z,5.85
2017-02-04T09:38:53.939Z,5.99
2017-02-04T09:40:03.753Z,6.04
2017-02-04T09:41:13.190Z,6.12
2017-02-04T09:42:23.010Z,6.12
2017-02-04T09:43:32.451Z,6.12
2017-02-04T09:44:42.274Z,6.18
2017-02-04T09:45:51.375Z,6.22
2017-02-04T09:47:01.190Z,6.19
2017-02-04T09:48:11.005Z,6.15
2017-02-04T09:49:20.441Z,6.31
2017-02-04T09:50:29.874Z,6.4
2017-02-04T09:51:40.513Z,6.37
2017-02-04T09:52:49.559Z,6.46
2017-02-04T09:53:58.611Z,6.46
2017-02-04T09:55:07.670Z,6.52
2017-02-04T09:56:16.720Z,6.55
2017-02-04T09:57:26.975Z,6.52
2017-02-04T09:58:36.415Z,6.59
2017-02-04T09:59:45.850Z,6.61
2017-02-04T10:00:55.668Z,6.59
2017-02-04T10:02:05.496Z,6.59
2017-02-04T10:03:15.311Z,6.62
2017-02-04T10:04:25.513Z,6.71
2017-02-04T10:05:35.331Z,6.71
2017-02-04T10:06:44.770Z,6.81
2017-02-04T10:07:54.213Z,6.76
2017-02-04T10:09:04.464Z,6.76
2017-02-04T10:10:14.665Z,6.74
2017-02-04T10:11:24.481Z,6.7
2017-02-04T10:12:34.311Z,6.73
2017-02-04T10:13:43.746Z,6.71
2017-02-04T10:14:52.851Z,6.73
2017-02-04T10:16:02.291Z,6.79
2017-02-04T10:17:11.728Z,6.77
2017-02-04T10:18:21.961Z,6.74
2017-02-04T10:19:32.160Z,6.84
2017-02-04T10:20:41.642Z,6.89
2017-02-04T10:21:51.841Z,6.87
2017-02-04T10:23:01.276Z,6.77
2017-02-04T10:24:10.712Z,6.91
2017-02-04T10:25:20.537Z,6.95
2017-02-04T10:26:30.018Z,7.09
2017-02-04T10:27:39.454Z,7.07
2017-02-04T10:28:49.272Z,7.1
2017-02-04T10:29:58.709Z,7.21
2017-02-04T10:31:09.304Z,7.24
2017-02-04T10:32:19.553Z,7.35
2017-02-04T10:33:29.374Z,7.25
2017-02-04T10:34:39.192Z,7.34
2017-02-04T10:35:49.778Z,7.3
2017-02-04T10:36:59.213Z,7.35
2017-02-04T10:38:09.095Z,7.35
2017-02-04T10:39:18.154Z,7.45
2017-02-04T10:40:27.970Z,7.46
2017-02-04T10:41:38.168Z,7.52
2017-02-04T10:42:47.989Z,7.34
2017-02-04T10:43:57.809Z,7.34
2017-02-04T10:45:07.628Z,7.27
2017-02-04T10:46:17.828Z,7.27
2017-02-04T10:47:27.640Z,7.25
2017-02-04T10:48:37.069Z,7.25
2017-02-04T10:49:46.552Z,7.37
2017-02-04T10:50:56.377Z,7.37
2017-02-04T10:52:06.197Z,7.48
2017-02-04T10:53:16.013Z,7.48
2017-02-04T10:54:26.215Z,7.49
2017-02-04T10:55:35.647Z,7.49
2017-02-04T10:56:44.695Z,7.53
2017-02-04T10:57:54.130Z,7.6
2017-02-04T10:59:03.184Z,7.57
2017-02-04T11:00:12.241Z,7.55
2017-02-04T11:01:20.906Z,7.63
2017-02-04T11:02:30.725Z,7.63
2017-02-04T11:03:39.773Z,7.6
2017-02-04T11:04:49.592Z,7.6
2017-02-04T11:05:59.790Z,7.58
2017-02-04T11:07:08.842Z,7.61
2017-02-04T11:08:18.277Z,7.57
2017-02-04T11:09:28.487Z,7.67
2017-02-04T11:10:37.562Z,7.61
2017-02-04T11:11:47.376Z,7.69
2017-02-04T11:12:56.863Z,7.69
2017-02-04T11:14:06.678Z,7.83
2017-02-04T11:15:16.493Z,7.8
2017-02-04T11:16:25.162Z,7.83
2017-02-04T11:17:35.367Z,7.85
2017-02-04T11:18:44.801Z,7.97
2017-02-04T11:19:54.233Z,7.95
2017-02-04T11:21:04.048Z,8.07
2017-02-04T11:22:14.250Z,8.15
2017-02-04T11:23:24.069Z,8.15
2017-02-04T11:24:33.550Z,8.08
2017-02-04T11:25:43.746Z,8.08
2017-02-04T11:26:53.179Z,8.19
2017-02-04T11:28:02.229Z,8.11
2017-02-04T11:29:12.046Z,8.15
2017-02-04T11:30:22.250Z,8.1
2017-02-04T11:31:32.449Z,8.15
2017-02-04T11:32:42.267Z,8.08
2017-02-04T11:33:52.472Z,8.07
2017-02-04T11:35:02.287Z,8.16
2017-02-04T11:36:11.334Z,8.12
2017-02-04T11:37:21.165Z,8.22
2017-02-04T11:38:30.600Z,8.29
2017-02-04T11:39:40.421Z,8.33
2017-02-04T11:40:50.627Z,8.41
2017-02-04T11:41:59.338Z,8.3
2017-02-04T11:43:08.393Z,8.37
2017-02-04T11:44:17.537Z,8.37
2017-02-04T11:45:26.683Z,8.45
2017-02-04T11:46:36.497Z,8.52
2017-02-04T11:47:45.983Z,8.59
2017-02-04T11:48:55.839Z,8.55
2017-02-04T11:50:06.045Z,8.41
2017-02-04T11:51:14.718Z,8.4
2017-02-04T11:52:24.922Z,8.38
2017-02-04T11:53:34.732Z,8.5
2017-02-04T11:54:43.784Z,8.52
2017-02-04T11:55:53.212Z,8.66
2017-02-04T11:57:03.793Z,8.62
2017-02-04T11:58:12.845Z,8.74
2017-02-04T11:59:23.437Z,8.68
2017-02-04T12:00:32.867Z,8.68
2017-02-04T12:01:42.686Z,8.74
2017-02-04T12:02:51.733Z,8.63
2017-02-04T12:04:01.553Z,8.68
2017-02-04T12:05:10.606Z,8.58
2017-02-04T12:06:20.805Z,8.58
2017-02-04T12:07:30.233Z,8.62
2017-02-04T12:08:40.053Z,8.53
2017-02-04T12:09:50.255Z,8.56
2017-02-04T12:10:59.684Z,8.52
2017-02-04T12:12:09.125Z,8.62
2017-02-04T12:13:18.943Z,8.59
2017-02-04T12:14:28.379Z,8.58
2017-02-04T12:15:38.580Z,8.58
2017-02-04T12:16:48.015Z,8.58
2017-02-04T12:17:57.832Z,8.56
2017-02-04T12:19:07.653Z,8.58
2017-02-04T12:20:17.093Z,8.5
2017-02-04T12:21:26.913Z,8.4
2017-02-04T12:22:36.731Z,8.41
2017-02-04T12:23:46.548Z,8.36
2017-02-04T12:24:55.988Z,8.37
2017-02-04T12:26:06.572Z,8.36
2017-02-04T12:27:16.006Z,8.41
2017-02-04T12:28:25.825Z,8.36
2017-02-04T12:29:34.881Z,8.29
2017-02-04T12:30:44.701Z,8.28
2017-02-04T12:31:54.136Z,8.22
2017-02-04T12:33:03.949Z,8.19
2017-02-04T12:34:13.770Z,8.18
2017-02-04T12:35:23.204Z,8.15
2017-02-04T12:36:33.399Z,8.11
2017-02-04T12:37:42.837Z,8.18
2017-02-04T12:38:52.265Z,8.05
2017-02-04T12:40:01.311Z,8.12
2017-02-04T12:41:10.750Z,8.11
2017-02-04T12:42:20.951Z,8.08
2017-02-04T12:43:30.017Z,8.05
2017-02-04T12:44:39.835Z,8.01
2017-02-04T12:45:49.272Z,8
2017-02-04T12:46:59.476Z,8.01
2017-02-04T12:48:09.713Z,7.92
2017-02-04T12:49:20.298Z,7.92
2017-02-04T12:50:30.115Z,7.92
2017-02-04T12:51:39.550Z,7.93
2017-02-04T12:52:49.747Z,7.97
2017-02-04T12:53:58.799Z,7.98
2017-02-04T12:55:07.852Z,8.12
2017-02-04T12:56:16.901Z,8.11
2017-02-04T12:57:26.389Z,8.02
2017-02-04T12:58:35.824Z,8.01
2017-02-04T12:59:45.640Z,7.98
2017-02-04T13:00:54.693Z,8.02
2017-02-04T13:02:04.507Z,7.98
2017-02-04T13:03:15.092Z,8.02
2017-02-04T13:04:24.913Z,8
2017-02-04T13:05:34.730Z,8.07
2017-02-04T13:06:43.777Z,8.16
2017-02-04T13:07:53.982Z,8.11
2017-02-04T13:09:03.804Z,8.15
2017-02-04T13:10:12.856Z,8.07
2017-02-04T13:11:23.068Z,8.08
2017-02-04T13:12:32.122Z,8.23
2017-02-04T13:13:41.943Z,8.16
2017-02-04T13:14:51.766Z,8.1
2017-02-04T13:16:01.235Z,8.22
2017-02-04T13:17:10.671Z,8.34
2017-02-04T13:18:19.720Z,8.38
2017-02-04T13:19:29.153Z,8.38
2017-02-04T13:20:38.973Z,8.36
2017-02-04T13:21:48.406Z,8.33
2017-02-04T13:22:58.611Z,8.37
2017-02-04T13:24:08.045Z,8.38
2017-02-04T13:25:17.486Z,8.29
2017-02-04T13:26:27.352Z,8.28
2017-02-04T13:27:36.784Z,8.2
2017-02-04T13:28:45.841Z,8.25
2017-02-04T13:29:55.274Z,8.33
2017-02-04T13:31:05.503Z,8.34
2017-02-04T13:32:15.713Z,8.34
2017-02-04T13:33:25.919Z,8.45
2017-02-04T13:34:35.354Z,8.52
2017-02-04T13:35:45.935Z,8.58
2017-02-04T13:36:55.750Z,8.58
2017-02-04T13:38:05.239Z,8.56
2017-02-04T13:39:14.291Z,8.61
2017-02-04T13:40:24.111Z,8.65
2017-02-04T13:41:33.158Z,8.58
2017-02-04T13:42:43.373Z,8.55
2017-02-04T13:43:53.240Z,8.53
2017-02-04T13:45:03.819Z,8.62
2017-02-04T13:46:13.635Z,8.58
2017-02-04T13:47:23.453Z,8.61
2017-02-04T13:48:33.651Z,8.58
2017-02-04T13:49:42.750Z,8.5
2017-02-04T13:50:52.567Z,8.5
2017-02-04T13:52:02.385Z,8.45
2017-02-04T13:53:12.203Z,8.53
2017-02-04T13:54:22.023Z,8.48
2017-02-04T13:55:31.891Z,8.37
2017-02-04T13:56:41.327Z,8.4
2017-02-04T13:57:50.378Z,8.37
2017-02-04T13:59:00.999Z,8.29
2017-02-04T14:00:10.821Z,8.25
2017-02-04T14:01:21.404Z,8.16
2017-02-04T14:02:30.457Z,8.1
2017-02-04T14:03:40.278Z,8.04
2017-02-04T14:04:50.093Z,8.05
2017-02-04T14:06:00.674Z,8.07
2017-02-04T14:07:10.300Z,8.04
2017-02-04T14:08:19.739Z,8.02
2017-02-04T14:09:29.936Z,8.04
2017-02-04T14:10:38.987Z,8.05
2017-02-04T14:11:48.040Z,8
2017-02-04T14:12:57.087Z,8.01
2017-02-04T14:14:07.286Z,7.97
2017-02-04T14:15:17.106Z,7.95
2017-02-04T14:16:26.169Z,7.86
2017-02-04T14:17:35.602Z,7.8
2017-02-04T14:18:44.662Z,7.74
2017-02-04T14:19:53.712Z,7.72
2017-02-04T14:21:03.529Z,7.53
2017-02-04T14:22:14.116Z,7.46
2017-02-04T14:23:23.547Z,7.34
2017-02-04T14:24:32.293Z,7.31
2017-02-04T14:25:42.493Z,7.25
2017-02-04T14:26:52.308Z,7.16
2017-02-04T14:28:01.739Z,7.13
2017-02-04T14:29:11.220Z,7.1
2017-02-04T14:30:21.416Z,7.09
2017-02-04T14:31:32.003Z,7.12
2017-02-04T14:32:42.587Z,7.16
2017-02-04T14:33:52.405Z,7.2
2017-02-04T14:35:02.220Z,7.12
2017-02-04T14:36:11.657Z,7.1
2017-02-04T14:37:20.321Z,7.1
2017-02-04T14:38:28.987Z,7.05
2017-02-04T14:39:38.418Z,7.06
2017-02-04T14:40:47.085Z,7.09
2017-02-04T14:41:57.305Z,7.06
2017-02-04T14:43:07.119Z,7.09
2017-02-04T14:44:17.319Z,6.91
2017-02-04T14:45:26.752Z,6.94
2017-02-04T14:46:36.579Z,6.99
2017-02-04T14:47:45.692Z,6.95
2017-02-04T14:48:55.512Z,6.94
2017-02-04T14:50:04.949Z,6.92
2017-02-04T14:51:14.002Z,6.94
2017-02-04T14:52:23.812Z,6.92
2017-02-04T14:53:32.856Z,6.88
2017-02-04T14:54:41.905Z,6.81
2017-02-04T14:55:52.103Z,6.81
2017-02-04T14:57:02.303Z,6.71
2017-02-04T14:58:11.736Z,6.81
2017-02-04T14:59:21.933Z,6.77
2017-02-04T15:00:31.751Z,6.79
2017-02-04T15:01:40.415Z,6.7
2017-02-04T15:02:49.849Z,6.74
2017-02-04T15:03:59.281Z,6.66
2017-02-04T15:05:09.092Z,6.67
2017-02-04T15:06:18.908Z,6.67
2017-02-04T15:07:28.726Z,6.69
2017-02-04T15:08:38.540Z,6.69
2017-02-04T15:09:48.742Z,6.7
2017-02-04T15:10:57.842Z,6.7
2017-02-04T15:12:07.654Z,6.64
2017-02-04T15:13:17.092Z,6.49
2017-02-04T15:14:26.519Z,6.55
2017-02-04T15:15:36.331Z,6.55
2017-02-04T15:16:44.996Z,6.52
2017-02-04T15:17:54.425Z,6.48
2017-02-04T15:19:03.467Z,6.46
2017-02-04T15:20:12.900Z,6.43
2017-02-04T15:21:21.558Z,6.43
2017-02-04T15:22:31.420Z,6.38
2017-02-04T15:23:41.613Z,6.37
2017-02-04T15:24:51.812Z,6.33
2017-02-04T15:26:01.281Z,6.36
2017-02-04T15:27:10.334Z,6.36
2017-02-04T15:28:20.206Z,6.41
2017-02-04T15:29:30.021Z,6.31
2017-02-04T15:30:39.453Z,6.34